Highland Lakes, NJ (07422)

3:17 PM EDT on August 04, 2015 (GMT -0400)
Barry Lakes | | Change Station
CLOSE
Current Station
Personal Weather Station
Location: Highland Lks., NJ
Elevation: 1224 ft
Nearby Weather Stations

Elev 1224 ft 41.20 °N, 74.43 °W | Updated 2 minutes ago

Partly Cloudy
Partly Cloudy
81.5 °F
Feels Like 85 °F
N
14.7
Wind Variable Wind from West
Gusts 17.0 mph

Today
High -- | Low -- °F
--% Chance of Precip.
Yesterday
High -- | Low -- °F
Precip. -- in
5:55 AM 8:11 PM
Waning Gibbous, 75% visible
Pressure 29.84 in
Visibility 10.0 miles
Clouds Scattered Clouds 6500 ft
Heat Index 85 °F
Dew Point 68 °F
Humidity 67%
Rainfall -999.00 in
Snow Depth Not available.
UV 7 out of 12
Pollen 7.80 out of 12
Air Quality Not available.
Flu Activity Not available.
METAR KFWN 041853Z AUTO 25008G16KT 10SM SCT065 29/14 A2985 RMK AO2 SLP105 T02940144

More Conditions Fewer Conditions

Pressure 29.84 in
Visibility 10.0 miles
Clouds Scattered Clouds 6500 ft
Heat Index 85 °F
Dew Point 68 °F
Humidity 67%
Rainfall -999.00 in
Snow Depth Not available.
UV 7 out of 12
Pollen 7.80 out of 12
Air Quality Not available.
Flu Activity Not available.
METAR KFWN 041853Z AUTO 25008G16KT 10SM SCT065 29/14 A2985 RMK AO2 SLP105 T02940144

More Conditions Fewer Conditions

10-Day Weather Forecast

×

Almanac

Astronomy

Aug. 04, 2015 Rise Set
Actual Time
Civil Twilight
Nautical Twilight
Astronomical Twilight
Moon
Length of Visible Light
Length of Day
Tomorrow will be .
, % of the Moon is Illuminated

Today's Extremes

State Highs State Lows

Community

WunderPhotos

Upload Photos

1,843,954 photos uploaded!

WunderBlogs® & News

Nearby

Air Quality

  Air Quality AQ Index Pollutant
Not available.

Snow Depth

Station Depth Elevation

Earthquake Activity

City Distance Mag. Time & Date
Minimum magnitude displayed is 2.5.

Coastal Water Temperatures

Place Temperature

Stations

Nearby Weather Stations

Station Location Temp. Windchill Dew Point Humidity Wind Precip. Elev Updated Type